createdAt,value
2022-11-28T00:01:31.398Z,66.31
2022-11-28T00:03:58.165Z,66.30
2022-11-28T00:06:27.030Z,66.12
2022-11-28T00:08:54.550Z,65.87
2022-11-28T00:11:21.154Z,65.91
2022-11-28T00:13:47.615Z,65.43
2022-11-28T00:16:17.734Z,65.38
2022-11-28T00:18:44.419Z,64.88
2022-11-28T00:21:14.355Z,64.81
2022-11-28T00:23:44.677Z,65.73
2022-11-28T00:26:19.765Z,66.27
2022-11-28T00:28:47.036Z,66.01
2022-11-28T00:31:22.049Z,66.87
2022-11-28T00:33:48.931Z,67.25
2022-11-28T00:36:16.062Z,66.84
2022-11-28T00:38:43.137Z,66.67
2022-11-28T00:41:17.682Z,66.19
2022-11-28T00:43:46.706Z,66.01
2022-11-28T00:46:15.122Z,66.09
2022-11-28T00:48:42.409Z,65.94
2022-11-28T00:51:17.987Z,65.91
2022-11-28T00:53:49.028Z,65.56
2022-11-28T00:56:23.693Z,65.05
2022-11-28T00:58:50.971Z,64.63
2022-11-28T01:01:46.977Z,64.60
2022-11-28T01:04:17.425Z,65.54
2022-11-28T01:06:50.000Z,65.40
2022-11-28T01:09:21.565Z,65.13
2022-11-28T01:11:50.974Z,64.46
2022-11-28T01:14:20.842Z,64.69
2022-11-28T01:16:47.465Z,65.15
2022-11-28T01:19:14.656Z,64.49
2022-11-28T01:21:41.980Z,64.45
2022-11-28T01:24:08.471Z,64.16
2022-11-28T01:26:35.259Z,64.58
2022-11-28T01:29:01.755Z,64.33
2022-11-28T01:31:30.234Z,64.31
2022-11-28T01:33:57.724Z,64.13
2022-11-28T01:36:26.224Z,63.99
2022-11-28T01:38:53.507Z,64.12
2022-11-28T01:41:26.323Z,63.08
2022-11-28T01:44:28.097Z,63.15
2022-11-28T01:46:54.648Z,63.46
2022-11-28T01:49:34.471Z,63.28
2022-11-28T01:52:15.185Z,63.42
2022-11-28T01:54:48.204Z,63.55
2022-11-28T01:57:21.637Z,63.18
2022-11-28T02:00:16.018Z,63.40
2022-11-28T02:02:48.539Z,63.07
2022-11-28T02:05:21.332Z,62.49
2022-11-28T02:07:50.203Z,63.07
2022-11-28T02:10:37.060Z,63.02
2022-11-28T02:13:33.964Z,62.55
2022-11-28T02:16:00.381Z,62.66
2022-11-28T02:19:03.947Z,62.59
2022-11-28T02:21:44.271Z,62.93
2022-11-28T02:24:54.810Z,62.98
2022-11-28T02:27:55.161Z,62.90
2022-11-28T02:30:34.546Z,63.27
2022-11-28T02:33:26.004Z,62.84
2022-11-28T02:36:19.619Z,63.34
2022-11-28T02:39:30.577Z,63.75
2022-11-28T02:42:10.743Z,63.64
2022-11-28T02:44:55.634Z,63.19
2022-11-28T02:47:34.153Z,63.04
2022-11-28T02:50:20.531Z,63.07
2022-11-28T02:52:52.942Z,64.43
2022-11-28T02:55:20.514Z,64.63
2022-11-28T02:57:51.151Z,64.09
2022-11-28T03:00:26.922Z,64.06
2022-11-28T03:03:31.067Z,63.36
2022-11-28T03:06:00.404Z,63.78
2022-11-28T03:09:24.852Z,63.43
2022-11-28T03:12:31.982Z,63.40
2022-11-28T03:15:02.791Z,65.24
2022-11-28T03:18:22.708Z,65.08
2022-11-28T03:21:00.887Z,65.00
2022-11-28T03:23:42.755Z,64.86
2022-11-28T03:26:45.865Z,65.22
2022-11-28T03:29:25.669Z,64.65
2022-11-28T03:32:01.671Z,65.52
2022-11-28T03:34:37.250Z,65.16
2022-11-28T03:37:10.908Z,65.27
2022-11-28T03:39:43.887Z,65.32
2022-11-28T03:42:17.649Z,65.12
2022-11-28T03:45:08.138Z,65.85
2022-11-28T03:47:43.457Z,66.11
2022-11-28T03:50:19.952Z,66.37
2022-11-28T03:53:03.680Z,66.64
2022-11-28T03:55:43.441Z,66.98
2022-11-28T03:58:27.075Z,67.05
2022-11-28T04:01:02.434Z,67.45
2022-11-28T04:03:51.598Z,67.61
2022-11-28T04:06:30.625Z,67.43
2022-11-28T04:09:14.147Z,67.32
2022-11-28T04:11:56.414Z,66.84
2022-11-28T04:14:34.198Z,67.62
2022-11-28T04:17:30.724Z,67.95
2022-11-28T04:20:18.255Z,67.84
2022-11-28T04:22:53.955Z,67.50
2022-11-28T04:25:24.764Z,66.91
2022-11-28T04:28:09.013Z,66.52
2022-11-28T04:30:38.501Z,66.77
2022-11-28T04:33:12.229Z,67.09
2022-11-28T04:35:46.418Z,67.11
2022-11-28T04:38:14.472Z,66.92
2022-11-28T04:41:01.501Z,66.55
2022-11-28T04:43:35.622Z,66.24
2022-11-28T04:46:14.758Z,65.68
2022-11-28T04:48:42.166Z,66.35
2022-11-28T04:51:30.569Z,65.45
2022-11-28T04:54:19.045Z,66.35
2022-11-28T04:57:12.283Z,65.75
2022-11-28T04:59:41.846Z,65.69
2022-11-28T05:02:09.986Z,65.32
2022-11-28T05:04:38.068Z,65.39
2022-11-28T05:07:08.154Z,65.48
2022-11-28T05:09:35.412Z,65.58
2022-11-28T05:12:02.436Z,65.38
2022-11-28T05:14:28.948Z,65.46
2022-11-28T05:16:55.537Z,65.31
2022-11-28T05:19:22.145Z,65.00
2022-11-28T05:21:48.661Z,65.31
2022-11-28T05:24:16.374Z,65.95
2022-11-28T05:26:43.256Z,65.68
2022-11-28T05:29:09.889Z,65.63
2022-11-28T05:31:38.309Z,65.71
2022-11-28T05:34:05.092Z,65.64
2022-11-28T05:36:31.594Z,65.70
2022-11-28T05:38:58.065Z,65.63
2022-11-28T05:41:28.534Z,65.89
2022-11-28T05:43:57.085Z,65.77
2022-11-28T05:46:24.657Z,65.23
2022-11-28T05:48:51.103Z,65.98
2022-11-28T05:51:19.814Z,65.27
2022-11-28T05:53:46.292Z,65.21
2022-11-28T05:56:17.296Z,65.24
2022-11-28T05:58:45.565Z,65.43
2022-11-28T06:01:22.639Z,65.86
2022-11-28T06:03:49.426Z,66.47
2022-11-28T06:06:21.823Z,66.56
2022-11-28T06:08:51.529Z,66.46
2022-11-28T06:11:23.716Z,67.21
2022-11-28T06:13:50.713Z,67.27
2022-11-28T06:16:26.624Z,66.87
2022-11-28T06:18:56.092Z,66.85
2022-11-28T06:21:23.264Z,66.86
2022-11-28T06:23:50.182Z,67.15
2022-11-28T06:26:20.529Z,67.22
2022-11-28T06:28:47.312Z,67.34
2022-11-28T06:31:28.483Z,66.81
2022-11-28T06:33:56.110Z,66.67
2022-11-28T06:36:22.835Z,66.38
2022-11-28T06:38:49.410Z,66.05
2022-11-28T06:41:20.918Z,65.82
2022-11-28T06:43:47.435Z,66.36
2022-11-28T06:46:18.838Z,66.70
2022-11-28T06:48:47.546Z,66.74
2022-11-28T06:51:15.080Z,66.04
2022-11-28T06:53:42.127Z,66.66
2022-11-28T06:56:14.017Z,66.34
2022-11-28T06:58:42.678Z,66.76
2022-11-28T07:01:16.699Z,66.83
2022-11-28T07:03:44.541Z,67.05
2022-11-28T07:06:12.652Z,67.04
2022-11-28T07:08:40.317Z,67.35
2022-11-28T07:11:11.220Z,67.23
2022-11-28T07:13:39.254Z,66.94
2022-11-28T07:16:07.023Z,67.70
2022-11-28T07:18:34.729Z,67.55
2022-11-28T07:21:01.360Z,67.49
2022-11-28T07:23:28.053Z,67.44
2022-11-28T07:26:03.288Z,67.70
2022-11-28T07:28:31.382Z,67.85
2022-11-28T07:31:14.959Z,67.32
2022-11-28T07:33:44.491Z,67.55
2022-11-28T07:36:18.423Z,67.14
2022-11-28T07:38:51.390Z,66.62
2022-11-28T07:41:22.524Z,66.99
2022-11-28T07:44:04.127Z,67.16
2022-11-28T07:46:33.304Z,67.73
2022-11-28T07:49:00.917Z,68.13
2022-11-28T07:51:33.188Z,67.90
2022-11-28T07:54:01.415Z,68.05
2022-11-28T07:57:04.542Z,67.48
2022-11-28T07:59:20.347Z,66.90
2022-11-28T08:01:46.890Z,67.12
2022-11-28T08:04:13.447Z,66.90
2022-11-28T08:06:44.228Z,66.30
2022-11-28T08:09:12.066Z,65.84
2022-11-28T08:11:39.458Z,66.32
2022-11-28T08:14:06.044Z,66.53
2022-11-28T08:16:33.245Z,66.18
2022-11-28T08:19:02.147Z,65.55
2022-11-28T08:21:32.729Z,65.87
2022-11-28T08:24:02.717Z,65.67
2022-11-28T08:26:32.293Z,65.13
2022-11-28T08:29:01.305Z,65.23
2022-11-28T08:31:37.241Z,65.58
2022-11-28T08:34:09.457Z,65.30
2022-11-28T08:36:36.903Z,64.56
2022-11-28T08:41:53.423Z,64.46
2022-11-28T08:44:20.012Z,64.91
2022-11-28T08:46:46.501Z,64.78
2022-11-28T08:49:13.033Z,64.37
2022-11-28T08:51:39.699Z,64.51
2022-11-28T08:54:06.376Z,65.05
2022-11-28T08:56:33.814Z,64.21
2022-11-28T08:59:00.580Z,63.71
2022-11-28T09:01:27.705Z,63.75
2022-11-28T09:03:56.043Z,63.96
2022-11-28T09:06:24.856Z,63.30
2022-11-28T09:08:52.692Z,63.16
2022-11-28T09:11:22.411Z,63.22
2022-11-28T09:13:49.225Z,63.24
2022-11-28T09:16:16.014Z,63.71
2022-11-28T09:18:42.898Z,64.00
2022-11-28T09:21:13.244Z,63.37
2022-11-28T09:23:42.682Z,64.29
2022-11-28T09:26:11.830Z,63.54
2022-11-28T09:28:38.365Z,63.61
2022-11-28T09:31:07.005Z,63.10
2022-11-28T09:33:34.598Z,62.90
2022-11-28T09:36:22.431Z,62.77
2022-11-28T09:38:49.830Z,62.58
2022-11-28T09:41:37.823Z,61.81
2022-11-28T09:44:26.127Z,62.26
2022-11-28T09:47:00.577Z,62.80
2022-11-28T09:49:51.256Z,62.16
2022-11-28T09:52:49.206Z,61.34
2022-11-28T09:55:40.541Z,62.50
2022-11-28T09:58:41.348Z,61.69
2022-11-28T10:01:10.814Z,62.17
2022-11-28T10:04:05.702Z,61.83
2022-11-28T10:06:53.514Z,61.99
2022-11-28T10:09:51.260Z,61.63
2022-11-28T10:12:32.266Z,63.10
2022-11-28T10:15:46.681Z,62.96
2022-11-28T10:18:33.493Z,62.69
2022-11-28T10:21:14.754Z,63.08
2022-11-28T10:23:47.949Z,64.21
2022-11-28T10:26:32.857Z,63.65
2022-11-28T10:29:11.537Z,64.54
2022-11-28T10:31:47.127Z,64.71
2022-11-28T10:34:35.345Z,65.28
2022-11-28T10:37:20.716Z,65.04
2022-11-28T10:39:48.459Z,65.40
2022-11-28T10:42:52.480Z,65.07
2022-11-28T10:45:46.181Z,65.99
2022-11-28T10:48:40.061Z,66.21
2022-11-28T10:51:09.864Z,66.17
2022-11-28T10:54:40.830Z,65.96
2022-11-28T10:57:24.132Z,66.54
2022-11-28T11:00:14.229Z,67.74
2022-11-28T11:02:55.859Z,67.85
2022-11-28T11:05:31.249Z,67.70
2022-11-28T11:08:19.488Z,67.02
2022-11-28T11:11:08.504Z,67.12
2022-11-28T11:14:09.451Z,67.87
2022-11-28T11:16:55.868Z,68.82
2022-11-28T11:19:39.489Z,68.33
2022-11-28T11:22:20.660Z,68.94
2022-11-28T11:25:17.316Z,69.14
2022-11-28T11:28:03.419Z,68.28
2022-11-28T11:30:39.220Z,68.82
2022-11-28T11:33:16.342Z,68.47
2022-11-28T11:35:47.813Z,68.77
2022-11-28T11:38:20.173Z,69.10
2022-11-28T11:40:48.437Z,69.31
2022-11-28T11:43:37.637Z,69.37
2022-11-28T11:46:14.812Z,68.69
2022-11-28T11:48:50.963Z,68.56
2022-11-28T11:51:39.128Z,69.39
2022-11-28T11:54:16.654Z,69.64
2022-11-28T11:56:51.236Z,69.16
2022-11-28T11:59:42.820Z,69.70
2022-11-28T12:02:27.693Z,69.01
2022-11-28T12:05:04.758Z,69.30
2022-11-28T12:07:40.272Z,68.84
2022-11-28T12:10:17.465Z,68.31
2022-11-28T12:12:43.947Z,68.63
2022-11-28T12:15:51.921Z,67.94
2022-11-28T12:19:00.057Z,68.46
2022-11-28T12:21:40.319Z,68.82
2022-11-28T12:24:24.080Z,67.63
2022-11-28T12:27:06.474Z,67.68
2022-11-28T12:30:19.241Z,66.86
2022-11-28T12:33:52.704Z,66.75
2022-11-28T12:36:36.191Z,66.80
2022-11-28T12:39:11.482Z,66.89
2022-11-28T12:42:33.513Z,66.18
2022-11-28T12:45:48.764Z,66.48
2022-11-28T12:48:53.078Z,66.27
2022-11-28T12:51:38.478Z,66.96
2022-11-28T12:54:35.951Z,66.98
2022-11-28T12:57:27.231Z,66.88
2022-11-28T13:00:08.130Z,66.96
2022-11-28T13:03:29.332Z,67.14
2022-11-28T13:06:27.228Z,67.22
2022-11-28T13:09:34.424Z,67.39
2022-11-28T13:12:49.159Z,68.34
2022-11-28T13:15:36.784Z,67.86
2022-11-28T13:18:17.528Z,68.52
2022-11-28T13:20:59.390Z,68.00
2022-11-28T13:23:53.223Z,68.41
2022-11-28T13:26:45.917Z,67.93
2022-11-28T13:29:53.778Z,68.41
2022-11-28T13:32:45.692Z,69.13
2022-11-28T13:35:16.152Z,68.66
2022-11-28T13:40:56.859Z,68.22
2022-11-28T13:44:03.769Z,67.90
2022-11-28T13:46:31.135Z,67.36
2022-11-28T13:49:14.948Z,67.12
2022-11-28T13:51:42.251Z,67.33
2022-11-28T13:54:17.871Z,67.11
2022-11-28T13:57:09.937Z,67.71
2022-11-28T13:59:38.084Z,68.29
2022-11-28T14:02:23.731Z,67.78
2022-11-28T14:04:50.654Z,68.56
2022-11-28T14:07:32.869Z,69.13
2022-11-28T14:10:34.975Z,69.05
2022-11-28T14:13:26.778Z,69.05
2022-11-28T14:16:18.834Z,69.79
2022-11-28T14:19:21.023Z,70.79
2022-11-28T14:22:05.512Z,70.15
2022-11-28T14:25:01.531Z,69.69
2022-11-28T14:27:34.858Z,69.77
2022-11-28T14:30:02.105Z,70.55
2022-11-28T14:32:37.623Z,70.49
2022-11-28T14:35:15.098Z,71.07
2022-11-28T14:37:52.794Z,70.40
2022-11-28T14:40:52.967Z,70.13
2022-11-28T14:43:33.827Z,70.19
2022-11-28T14:46:15.168Z,70.17
2022-11-28T14:49:05.224Z,69.96
2022-11-28T14:51:44.045Z,69.68
2022-11-28T14:54:26.850Z,69.29
2022-11-28T14:56:59.616Z,69.70
2022-11-28T14:59:37.094Z,70.05
2022-11-28T15:02:12.552Z,70.98
2022-11-28T15:04:51.265Z,71.29
2022-11-28T15:07:35.310Z,70.96
2022-11-28T15:10:15.514Z,71.64
2022-11-28T15:13:26.875Z,71.67
2022-11-28T15:15:54.082Z,71.84
2022-11-28T15:18:24.913Z,71.83
2022-11-28T15:21:01.117Z,71.82
2022-11-28T15:23:38.328Z,72.50
2022-11-28T15:26:06.771Z,72.69
2022-11-28T15:28:35.572Z,72.72
2022-11-28T15:31:05.642Z,72.67
2022-11-28T15:33:33.628Z,71.88
2022-11-28T15:36:10.702Z,71.07
2022-11-28T15:38:41.048Z,70.57
2022-11-28T15:41:08.127Z,70.10
2022-11-28T15:43:38.164Z,69.64
2022-11-28T15:46:05.914Z,69.86
2022-11-28T15:48:48.931Z,69.51
2022-11-28T15:51:30.601Z,69.59
2022-11-28T15:53:57.120Z,69.67
2022-11-28T15:56:24.010Z,69.99
2022-11-28T15:58:51.757Z,70.54
2022-11-28T16:01:21.243Z,70.47
2022-11-28T16:04:13.464Z,70.28
2022-11-28T16:06:44.281Z,70.51
2022-11-28T16:09:19.418Z,70.58
2022-11-28T16:11:52.233Z,70.32
2022-11-28T16:14:34.771Z,70.17
2022-11-28T16:17:14.265Z,69.70
2022-11-28T16:19:44.318Z,70.20
2022-11-28T16:22:19.376Z,70.22
2022-11-28T16:24:55.317Z,70.46
2022-11-28T16:27:41.600Z,70.45
2022-11-28T16:30:23.462Z,70.92
2022-11-28T16:32:52.402Z,70.63
2022-11-28T16:35:34.163Z,70.37
2022-11-28T16:38:18.038Z,70.72
2022-11-28T16:40:44.963Z,71.16
2022-11-28T16:43:30.954Z,71.05
2022-11-28T16:46:01.075Z,71.06
2022-11-28T16:48:34.287Z,71.17
2022-11-28T16:51:12.712Z,70.34
2022-11-28T16:53:50.924Z,70.49
2022-11-28T16:56:29.785Z,69.75
2022-11-28T16:59:20.417Z,69.95
2022-11-28T17:01:52.922Z,69.67
2022-11-28T17:04:28.201Z,70.22
2022-11-28T17:07:05.112Z,70.57
2022-11-28T17:09:33.794Z,70.90
2022-11-28T17:12:18.487Z,70.72
2022-11-28T17:14:45.034Z,70.90
2022-11-28T17:17:15.014Z,71.24
2022-11-28T17:19:41.941Z,71.46
2022-11-28T17:22:15.527Z,70.98
2022-11-28T17:24:43.240Z,70.59
2022-11-28T17:27:13.752Z,70.26
2022-11-28T17:29:40.357Z,70.63
2022-11-28T17:32:11.769Z,70.24
2022-11-28T17:34:38.839Z,69.85
2022-11-28T17:37:05.395Z,70.51
2022-11-28T17:39:31.969Z,70.62
2022-11-28T17:41:59.164Z,70.84
2022-11-28T17:44:35.022Z,70.95
2022-11-28T17:47:03.060Z,70.79
2022-11-28T17:49:33.137Z,71.05
2022-11-28T17:51:59.720Z,71.50
2022-11-28T17:54:27.276Z,71.89
2022-11-28T17:56:55.088Z,71.67
2022-11-28T17:59:24.170Z,71.30
2022-11-28T18:01:50.770Z,71.10
2022-11-28T18:04:17.717Z,70.41
2022-11-28T18:06:46.587Z,69.70
2022-11-28T18:09:14.392Z,70.13
2022-11-28T18:11:42.554Z,70.28
2022-11-28T18:14:10.590Z,70.83
2022-11-28T18:16:37.181Z,71.22
2022-11-28T18:19:04.200Z,71.48
2022-11-28T18:21:31.784Z,71.89
2022-11-28T18:23:58.436Z,71.73
2022-11-28T18:26:26.348Z,72.80
2022-11-28T18:28:54.123Z,73.01
2022-11-28T18:31:25.108Z,72.89
2022-11-28T18:33:57.374Z,72.84
2022-11-28T18:36:28.560Z,72.69
2022-11-28T18:38:57.353Z,72.03
2022-11-28T18:41:24.750Z,72.08
2022-11-28T18:44:11.304Z,72.31
2022-11-28T18:46:39.405Z,72.55
2022-11-28T18:49:06.004Z,72.01
2022-11-28T18:51:35.496Z,71.58
2022-11-28T18:54:05.216Z,71.31
2022-11-28T18:56:32.003Z,72.42
2022-11-28T18:58:58.732Z,72.38
2022-11-28T19:01:30.127Z,72.63
2022-11-28T19:04:01.829Z,73.52
2022-11-28T19:06:29.586Z,73.29
2022-11-28T19:09:00.001Z,72.38
2022-11-28T19:11:28.603Z,71.52
2022-11-28T19:13:56.425Z,71.08
2022-11-28T19:16:27.102Z,71.04
2022-11-28T19:18:53.688Z,70.89
2022-11-28T19:21:25.629Z,70.76
2022-11-28T19:23:55.176Z,70.52
2022-11-28T19:26:24.993Z,70.24
2022-11-28T19:28:51.942Z,70.49
2022-11-28T19:31:22.157Z,70.74
2022-11-28T19:34:01.153Z,71.06
2022-11-28T19:36:31.142Z,70.72
2022-11-28T19:38:59.384Z,71.57
2022-11-28T19:41:27.364Z,71.37
2022-11-28T19:43:54.102Z,71.65
2022-11-28T19:46:20.761Z,71.29
2022-11-28T19:48:47.297Z,71.31
2022-11-28T19:51:15.691Z,70.80
2022-11-28T19:53:43.660Z,70.25
2022-11-28T19:56:20.094Z,69.90
2022-11-28T19:58:47.376Z,69.92
2022-11-28T20:01:23.585Z,70.04
2022-11-28T20:03:52.009Z,70.12
2022-11-28T20:06:29.033Z,69.83
2022-11-28T20:09:01.242Z,70.07
2022-11-28T20:11:34.691Z,70.08
2022-11-28T20:14:12.864Z,69.63
2022-11-28T20:16:39.528Z,69.51
2022-11-28T20:19:07.560Z,69.78
2022-11-28T20:21:35.327Z,70.05
2022-11-28T20:24:07.322Z,69.66
2022-11-28T20:26:41.361Z,69.65
2022-11-28T20:29:11.959Z,70.39
2022-11-28T20:31:45.547Z,70.08
2022-11-28T20:34:14.655Z,69.90
2022-11-28T20:36:41.341Z,70.22
2022-11-28T20:39:09.512Z,70.25
2022-11-28T20:41:35.963Z,69.69
2022-11-28T20:44:02.751Z,69.93
2022-11-28T20:46:33.460Z,70.21
2022-11-28T20:49:03.932Z,70.62
2022-11-28T20:51:33.206Z,70.68
2022-11-28T20:54:01.085Z,70.54
2022-11-28T20:56:51.626Z,71.10
2022-11-28T20:59:21.914Z,71.51
2022-11-28T21:01:48.720Z,71.08
2022-11-28T21:04:17.191Z,70.75
2022-11-28T21:06:46.943Z,70.47
2022-11-28T21:09:14.707Z,70.56
2022-11-28T21:11:56.714Z,70.60
2022-11-28T21:14:24.424Z,70.82
2022-11-28T21:16:50.905Z,70.77
2022-11-28T21:19:17.448Z,70.92
2022-11-28T21:21:43.884Z,70.62
2022-11-28T21:24:13.584Z,70.99
2022-11-28T21:26:46.535Z,71.12
2022-11-28T21:29:17.884Z,70.97
2022-11-28T21:31:46.452Z,71.76
2022-11-28T21:34:15.325Z,72.13
2022-11-28T21:36:42.587Z,72.45
2022-11-28T21:39:16.002Z,71.71
2022-11-28T21:41:42.752Z,71.66
2022-11-28T21:44:09.560Z,71.28
2022-11-28T21:46:36.075Z,70.80
2022-11-28T21:49:02.670Z,70.93
2022-11-28T21:51:29.163Z,70.87
2022-11-28T21:53:57.387Z,70.79
2022-11-28T21:56:24.792Z,70.86
2022-11-28T21:58:51.742Z,70.71
2022-11-28T22:01:20.217Z,70.67
2022-11-28T22:03:47.097Z,70.76
2022-11-28T22:06:26.099Z,70.12
2022-11-28T22:08:53.850Z,70.31
2022-11-28T22:11:21.880Z,70.18
2022-11-28T22:13:49.056Z,69.67
2022-11-28T22:16:25.125Z,69.91
2022-11-28T22:18:55.212Z,69.97
2022-11-28T22:21:50.709Z,69.84
2022-11-28T22:24:09.146Z,69.94
2022-11-28T22:26:36.410Z,69.96
2022-11-28T22:29:03.929Z,70.10
2022-11-28T22:31:30.708Z,70.89
2022-11-28T22:33:57.406Z,72.05
2022-11-28T22:36:24.431Z,72.46
2022-11-28T22:38:56.424Z,73.28
2022-11-28T22:41:28.910Z,73.84
2022-11-28T22:44:01.196Z,73.13
2022-11-28T22:46:28.692Z,72.67
2022-11-28T22:48:55.631Z,72.26
2022-11-28T22:51:25.880Z,71.99
2022-11-28T22:53:55.048Z,71.99
2022-11-28T22:56:22.567Z,72.10
2022-11-28T22:58:49.275Z,71.68
2022-11-28T23:01:20.091Z,71.58
2022-11-28T23:03:47.631Z,71.47
2022-11-28T23:06:18.109Z,70.99
2022-11-28T23:08:45.813Z,71.20
2022-11-28T23:11:19.101Z,70.89
2022-11-28T23:13:50.005Z,70.66
2022-11-28T23:16:38.639Z,70.41
2022-11-28T23:19:10.478Z,70.53
2022-11-28T23:21:41.724Z,70.52
2022-11-28T23:24:14.501Z,70.56
2022-11-28T23:26:41.907Z,70.50
2022-11-28T23:29:09.065Z,70.25
2022-11-28T23:31:39.644Z,70.21
2022-11-28T23:34:07.204Z,70.42
2022-11-28T23:36:47.576Z,70.16
2022-11-28T23:39:19.159Z,70.06
2022-11-28T23:41:46.917Z,70.03
2022-11-28T23:44:15.916Z,70.35
2022-11-28T23:46:43.899Z,70.49
2022-11-28T23:49:11.545Z,70.53
2022-11-28T23:51:40.413Z,70.51
2022-11-28T23:54:08.711Z,70.63
2022-11-28T23:56:37.455Z,70.64
2022-11-28T23:59:08.042Z,70.40
